createdAt,value
2023-02-08T00:01:07.132Z,85.62
2023-02-08T00:03:37.448Z,85.71
2023-02-08T00:06:07.783Z,85.67
2023-02-08T00:08:37.894Z,84.89
2023-02-08T00:11:08.122Z,85.46
2023-02-08T00:13:40.959Z,85.60
2023-02-08T00:16:09.135Z,85.43
2023-02-08T00:18:39.524Z,84.20
2023-02-08T00:21:09.827Z,83.80
2023-02-08T00:23:40.194Z,84.72
2023-02-08T00:26:10.835Z,85.27
2023-02-08T00:28:41.417Z,84.46
2023-02-08T00:31:11.894Z,85.00
2023-02-08T00:33:41.944Z,85.31
2023-02-08T00:36:12.060Z,85.46
2023-02-08T00:38:42.633Z,85.36
2023-02-08T00:41:12.657Z,85.49
2023-02-08T00:43:43.207Z,85.42
2023-02-08T00:46:13.413Z,85.18
2023-02-08T00:48:43.434Z,85.18
2023-02-08T00:51:13.814Z,84.59
2023-02-08T00:53:44.302Z,83.63
2023-02-08T00:56:14.661Z,82.73
2023-02-08T00:58:45.038Z,83.27
2023-02-08T01:01:15.808Z,83.68
2023-02-08T01:03:46.056Z,84.37
2023-02-08T01:06:17.005Z,84.25
2023-02-08T01:08:46.891Z,84.08
2023-02-08T01:11:17.361Z,83.93
2023-02-08T01:13:47.916Z,83.64
2023-02-08T01:16:18.472Z,83.32
2023-02-08T01:18:49.140Z,83.87
2023-02-08T01:21:19.648Z,84.16
2023-02-08T01:23:50.048Z,83.80
2023-02-08T01:26:20.687Z,83.04
2023-02-08T01:28:51.093Z,82.38
2023-02-08T01:31:22.091Z,82.03
2023-02-08T01:33:52.847Z,82.33
2023-02-08T01:36:23.654Z,82.31
2023-02-08T01:38:54.126Z,82.22
2023-02-08T01:41:24.809Z,82.16
2023-02-08T01:43:55.409Z,82.92
2023-02-08T01:46:26.018Z,83.70
2023-02-08T01:48:56.695Z,83.52
2023-02-08T01:51:27.247Z,83.24
2023-02-08T01:53:58.196Z,83.89
2023-02-08T01:56:28.378Z,84.94
2023-02-08T01:58:58.592Z,85.24
2023-02-08T02:01:29.141Z,92.18
2023-02-08T02:03:59.589Z,88.01
2023-02-08T02:06:30.289Z,86.10
2023-02-08T02:09:00.732Z,85.67
2023-02-08T02:11:30.963Z,85.37
2023-02-08T02:14:01.483Z,86.05
2023-02-08T02:16:31.817Z,86.29
2023-02-08T02:19:02.332Z,86.34
2023-02-08T02:21:33.141Z,86.28
2023-02-08T02:24:03.386Z,86.43
2023-02-08T02:26:34.249Z,86.62
2023-02-08T02:29:04.345Z,86.19
2023-02-08T02:31:35.024Z,85.82
2023-02-08T02:34:05.266Z,85.66
2023-02-08T02:36:35.233Z,85.21
2023-02-08T02:39:05.967Z,85.15
2023-02-08T02:41:36.509Z,85.57
2023-02-08T02:44:06.802Z,85.77
2023-02-08T02:46:37.247Z,86.18
2023-02-08T02:49:07.760Z,86.50
2023-02-08T02:51:38.640Z,86.66
2023-02-08T02:54:09.080Z,86.64
2023-02-08T02:56:39.865Z,86.74
2023-02-08T02:59:10.405Z,86.51
2023-02-08T03:01:41.012Z,86.16
2023-02-08T03:04:11.233Z,85.16
2023-02-08T03:06:41.580Z,84.70
2023-02-08T03:09:11.658Z,84.29
2023-02-08T03:11:42.405Z,84.28
2023-02-08T03:14:13.120Z,84.75
2023-02-08T03:16:43.950Z,84.85
2023-02-08T03:19:14.560Z,84.69
2023-02-08T03:21:45.067Z,84.21
2023-02-08T03:24:15.874Z,83.85
2023-02-08T03:26:45.918Z,84.12
2023-02-08T03:29:16.210Z,84.89
2023-02-08T03:31:46.655Z,84.78
2023-02-08T03:34:17.401Z,84.25
2023-02-08T03:36:47.753Z,84.41
2023-02-08T03:39:17.907Z,83.52
2023-02-08T03:41:47.961Z,84.71
2023-02-08T03:44:18.072Z,84.66
2023-02-08T03:46:48.673Z,85.60
2023-02-08T03:49:19.561Z,85.54
2023-02-08T03:51:49.871Z,85.74
2023-02-08T03:54:20.091Z,85.82
2023-02-08T03:56:51.090Z,85.68
2023-02-08T03:59:21.477Z,84.92
2023-02-08T04:01:51.533Z,85.37
2023-02-08T04:04:21.602Z,84.69
2023-02-08T04:06:52.210Z,85.01
2023-02-08T04:09:22.727Z,85.28
2023-02-08T04:11:53.130Z,85.51
2023-02-08T04:14:23.523Z,85.64
2023-02-08T04:16:54.311Z,86.06
2023-02-08T04:19:25.132Z,85.95
2023-02-08T04:21:55.944Z,85.85
2023-02-08T04:24:26.337Z,85.69
2023-02-08T04:26:56.345Z,85.58
2023-02-08T04:29:26.511Z,85.34
2023-02-08T04:31:56.617Z,85.04
2023-02-08T04:34:26.931Z,85.12
2023-02-08T04:36:56.860Z,85.16
2023-02-08T04:39:27.161Z,84.83
2023-02-08T04:41:57.709Z,84.94
2023-02-08T04:44:28.379Z,85.00
2023-02-08T04:46:59.119Z,84.90
2023-02-08T04:49:29.629Z,84.75
2023-02-08T04:52:00.140Z,85.12
2023-02-08T04:54:30.555Z,85.05
2023-02-08T04:57:00.962Z,85.16
2023-02-08T04:59:31.516Z,84.34
2023-02-08T05:02:02.336Z,83.63
2023-02-08T05:04:32.995Z,83.86
2023-02-08T05:07:03.304Z,84.00
2023-02-08T05:09:33.653Z,84.12
2023-02-08T05:12:03.744Z,84.62
2023-02-08T05:14:34.509Z,84.27
2023-02-08T05:17:04.641Z,83.34
2023-02-08T05:19:34.709Z,82.79
2023-02-08T05:22:05.612Z,82.80
2023-02-08T05:24:36.210Z,82.90
2023-02-08T05:27:06.160Z,83.76
2023-02-08T05:29:36.291Z,84.16
2023-02-08T05:32:06.467Z,84.53
2023-02-08T05:34:37.371Z,84.78
2023-02-08T05:37:07.376Z,85.01
2023-02-08T05:39:37.849Z,91.06
2023-02-08T05:42:08.486Z,87.25
2023-02-08T05:44:38.504Z,85.82
2023-02-08T05:47:09.378Z,85.96
2023-02-08T05:49:39.486Z,86.10
2023-02-08T05:52:10.064Z,86.01
2023-02-08T05:54:40.960Z,85.80
2023-02-08T05:57:10.955Z,85.52
2023-02-08T05:59:41.809Z,85.41
2023-02-08T06:02:12.565Z,85.98
2023-02-08T06:04:43.312Z,86.32
2023-02-08T06:07:13.937Z,86.63
2023-02-08T06:09:44.647Z,86.53
2023-02-08T06:12:15.111Z,86.53
2023-02-08T06:14:45.933Z,86.06
2023-02-08T06:17:16.364Z,86.03
2023-02-08T06:19:46.823Z,85.82
2023-02-08T06:22:16.991Z,85.49
2023-02-08T06:24:47.042Z,85.46
2023-02-08T06:27:17.544Z,85.84
2023-02-08T06:29:48.130Z,85.76
2023-02-08T06:32:18.846Z,85.44
2023-02-08T06:34:49.264Z,85.23
2023-02-08T06:37:19.751Z,84.62
2023-02-08T06:39:49.826Z,84.40
2023-02-08T06:42:20.176Z,84.34
2023-02-08T06:44:55.110Z,85.10
2023-02-08T06:47:20.910Z,85.77
2023-02-08T06:49:51.698Z,85.85
2023-02-08T06:52:22.037Z,85.98
2023-02-08T06:54:52.724Z,86.03
2023-02-08T06:57:22.804Z,86.16
2023-02-08T06:59:52.971Z,86.09
2023-02-08T07:02:23.658Z,85.58
2023-02-08T07:04:53.634Z,85.63
2023-02-08T07:07:24.040Z,84.39
2023-02-08T07:09:54.084Z,83.80
2023-02-08T07:12:24.294Z,84.29
2023-02-08T07:14:55.045Z,85.22
2023-02-08T07:17:25.547Z,85.39
2023-02-08T07:19:55.650Z,84.97
2023-02-08T07:22:26.086Z,85.46
2023-02-08T07:24:56.880Z,85.95
2023-02-08T07:27:27.438Z,86.11
2023-02-08T07:29:57.728Z,86.09
2023-02-08T07:32:28.558Z,85.88
2023-02-08T07:34:58.718Z,85.76
2023-02-08T07:37:28.919Z,85.56
2023-02-08T07:39:59.665Z,85.10
2023-02-08T07:42:30.298Z,85.25
2023-02-08T07:45:00.456Z,84.92
2023-02-08T07:47:30.662Z,84.29
2023-02-08T07:50:01.344Z,84.72
2023-02-08T07:52:32.130Z,84.64
2023-02-08T07:55:02.265Z,85.27
2023-02-08T07:57:32.948Z,85.70
2023-02-08T08:00:02.975Z,85.86
2023-02-08T08:02:33.603Z,85.62
2023-02-08T08:05:03.722Z,85.50
2023-02-08T08:07:34.258Z,85.81
2023-02-08T08:10:04.431Z,85.89
2023-02-08T08:12:34.922Z,85.84
2023-02-08T08:15:05.342Z,86.54
2023-02-08T08:17:36.056Z,86.32
2023-02-08T08:20:06.680Z,86.48
2023-02-08T08:22:36.888Z,86.30
2023-02-08T08:25:07.663Z,86.11
2023-02-08T08:27:38.413Z,85.96
2023-02-08T08:30:08.665Z,86.33
2023-02-08T08:32:39.326Z,86.10
2023-02-08T08:35:10.149Z,86.16
2023-02-08T08:37:40.792Z,86.24
2023-02-08T08:40:11.119Z,86.16
2023-02-08T08:42:41.857Z,86.62
2023-02-08T08:45:11.921Z,86.64
2023-02-08T08:47:42.358Z,87.15
2023-02-08T08:50:12.400Z,87.12
2023-02-08T08:52:42.638Z,87.30
2023-02-08T08:55:13.228Z,87.18
2023-02-08T08:57:43.902Z,87.45
2023-02-08T09:00:14.087Z,87.33
2023-02-08T09:02:44.775Z,87.90
2023-02-08T09:05:14.870Z,87.73
2023-02-08T09:07:45.193Z,87.97
2023-02-08T09:10:15.389Z,88.07
2023-02-08T09:12:45.940Z,87.98
2023-02-08T09:15:16.656Z,87.50
2023-02-08T09:17:46.845Z,87.47
2023-02-08T09:20:17.124Z,87.81
2023-02-08T09:22:47.771Z,87.56
2023-02-08T09:25:17.935Z,87.82
2023-02-08T09:27:48.328Z,87.76
2023-02-08T09:30:19.083Z,87.96
2023-02-08T09:32:49.422Z,88.10
2023-02-08T09:35:20.058Z,88.77
2023-02-08T09:37:50.751Z,88.29
2023-02-08T09:40:21.015Z,88.74
2023-02-08T09:42:51.488Z,88.40
2023-02-08T09:45:21.662Z,87.84
2023-02-08T09:47:51.681Z,87.80
2023-02-08T09:50:22.412Z,87.75
2023-02-08T09:52:52.969Z,87.85
2023-02-08T09:55:23.532Z,87.83
2023-02-08T09:57:53.689Z,96.32
2023-02-08T10:00:24.363Z,91.67
2023-02-08T10:02:55.048Z,90.02
2023-02-08T10:05:25.723Z,90.29
2023-02-08T10:07:56.334Z,88.67
2023-02-08T10:10:26.556Z,88.63
2023-02-08T10:12:57.271Z,87.32
2023-02-08T10:15:27.747Z,85.41
2023-02-08T10:17:58.487Z,86.12
2023-02-08T10:20:28.782Z,86.74
2023-02-08T10:22:59.046Z,87.71
2023-02-08T10:25:29.051Z,87.86
2023-02-08T10:27:59.791Z,88.26
2023-02-08T10:30:29.895Z,86.72
2023-02-08T10:33:00.343Z,88.19
2023-02-08T10:35:30.825Z,86.65
2023-02-08T10:38:01.303Z,81.62
2023-02-08T10:40:32.000Z,84.59
2023-02-08T10:43:02.603Z,85.29
2023-02-08T10:45:33.428Z,81.96
2023-02-08T10:48:03.367Z,81.81
2023-02-08T10:50:34.005Z,81.27
2023-02-08T10:53:04.679Z,79.65
2023-02-08T10:55:40.458Z,76.82
2023-02-08T10:58:05.925Z,77.42
2023-02-08T11:00:36.540Z,75.90
2023-02-08T11:03:07.132Z,75.23
2023-02-08T11:05:37.471Z,73.32
2023-02-08T11:08:07.707Z,74.74
2023-02-08T11:10:38.407Z,73.29
2023-02-08T11:13:08.636Z,72.56
2023-02-08T11:15:38.901Z,72.85
2023-02-08T11:18:09.609Z,73.62
2023-02-08T11:20:40.103Z,72.92
2023-02-08T11:23:10.259Z,73.14
2023-02-08T11:25:41.545Z,71.95
2023-02-08T11:28:11.694Z,70.68
2023-02-08T11:30:42.637Z,71.47
2023-02-08T11:33:12.872Z,71.19
2023-02-08T11:35:44.187Z,70.27
2023-02-08T11:38:13.843Z,70.62
2023-02-08T11:40:44.197Z,70.32
2023-02-08T11:43:14.978Z,70.78
2023-02-08T11:45:45.828Z,71.16
2023-02-08T11:48:16.254Z,70.80
2023-02-08T11:50:46.729Z,69.48
2023-02-08T11:53:17.242Z,70.45
2023-02-08T11:55:47.740Z,69.46
2023-02-08T11:58:18.253Z,70.12
2023-02-08T12:00:48.734Z,71.41
2023-02-08T12:03:19.330Z,72.16
2023-02-08T12:05:49.461Z,71.33
2023-02-08T12:08:20.302Z,70.76
2023-02-08T12:10:50.748Z,71.80
2023-02-08T12:13:21.140Z,71.88
2023-02-08T12:15:58.685Z,71.83
2023-02-08T12:18:22.310Z,71.88
2023-02-08T12:20:52.844Z,71.13
2023-02-08T12:23:22.980Z,71.13
2023-02-08T12:25:53.056Z,69.64
2023-02-08T12:28:23.950Z,69.73
2023-02-08T12:30:54.418Z,68.93
2023-02-08T12:33:25.126Z,69.09
2023-02-08T12:36:04.118Z,69.41
2023-02-08T12:38:26.379Z,70.12
2023-02-08T12:40:56.927Z,70.58
2023-02-08T12:43:27.400Z,69.91
2023-02-08T12:45:58.271Z,69.01
2023-02-08T12:48:28.981Z,68.56
2023-02-08T12:50:59.514Z,69.85
2023-02-08T12:53:30.285Z,69.71
2023-02-08T12:56:01.037Z,68.86
2023-02-08T12:58:31.211Z,69.62
2023-02-08T13:01:01.456Z,69.78
2023-02-08T13:03:31.869Z,66.46
2023-02-08T13:06:03.131Z,67.42
2023-02-08T13:08:33.143Z,66.56
2023-02-08T13:11:17.814Z,66.76
2023-02-08T13:13:33.617Z,66.59
2023-02-08T13:16:04.429Z,68.19
2023-02-08T13:18:35.321Z,67.72
2023-02-08T13:21:05.921Z,66.22
2023-02-08T13:23:50.665Z,67.49
2023-02-08T13:26:07.517Z,66.11
2023-02-08T13:28:38.234Z,66.60
2023-02-08T13:31:08.593Z,66.61
2023-02-08T13:33:41.059Z,65.99
2023-02-08T13:36:08.738Z,66.22
2023-02-08T13:38:39.231Z,66.48
2023-02-08T13:41:09.993Z,63.69
2023-02-08T13:43:40.765Z,63.97
2023-02-08T13:46:11.634Z,65.99
2023-02-08T13:48:42.192Z,63.89
2023-02-08T13:51:12.310Z,63.67
2023-02-08T13:53:42.767Z,65.17
2023-02-08T13:56:13.549Z,64.25
2023-02-08T13:58:44.272Z,65.21
2023-02-08T14:01:15.059Z,64.53
2023-02-08T14:03:45.777Z,65.34
2023-02-08T14:06:16.184Z,64.96
2023-02-08T14:08:46.645Z,66.07
2023-02-08T14:11:17.407Z,63.65
2023-02-08T14:13:48.164Z,62.83
2023-02-08T14:16:18.648Z,63.26
2023-02-08T14:18:48.733Z,63.86
2023-02-08T14:21:19.515Z,63.63
2023-02-08T14:23:50.240Z,62.05
2023-02-08T14:26:20.375Z,62.95
2023-02-08T14:28:51.115Z,64.24
2023-02-08T14:31:22.079Z,63.96
2023-02-08T14:33:52.604Z,63.38
2023-02-08T14:36:23.095Z,62.82
2023-02-08T14:38:53.578Z,63.64
2023-02-08T14:41:24.308Z,63.89
2023-02-08T14:43:55.064Z,64.60
2023-02-08T14:46:25.465Z,64.07
2023-02-08T14:48:56.186Z,64.16
2023-02-08T14:51:26.957Z,64.54
2023-02-08T14:53:57.708Z,64.08
2023-02-08T14:56:28.543Z,63.29
2023-02-08T14:58:59.164Z,62.70
2023-02-08T15:01:29.908Z,64.06
2023-02-08T15:04:02.361Z,63.76
2023-02-08T15:06:31.465Z,64.28
2023-02-08T15:09:02.292Z,63.64
2023-02-08T15:11:32.874Z,63.67
2023-02-08T15:14:03.590Z,64.25
2023-02-08T15:16:34.370Z,64.09
2023-02-08T15:19:05.053Z,63.93
2023-02-08T15:21:35.809Z,64.25
2023-02-08T15:24:06.278Z,63.81
2023-02-08T15:26:36.763Z,63.77
2023-02-08T15:29:07.533Z,64.50
2023-02-08T15:31:38.268Z,64.53
2023-02-08T15:34:08.995Z,64.71
2023-02-08T15:36:39.763Z,64.22
2023-02-08T15:39:10.530Z,63.86
2023-02-08T15:41:41.274Z,63.81
2023-02-08T15:44:12.045Z,64.16
2023-02-08T15:46:42.180Z,64.13
2023-02-08T15:49:12.387Z,64.22
2023-02-08T15:51:43.155Z,63.73
2023-02-08T15:54:13.910Z,63.97
2023-02-08T15:56:44.809Z,63.28
2023-02-08T15:59:15.469Z,64.25
2023-02-08T16:01:46.279Z,64.77
2023-02-08T16:04:17.019Z,64.54
2023-02-08T16:06:47.529Z,64.50
2023-02-08T16:09:18.304Z,64.30
2023-02-08T16:11:49.136Z,62.78
2023-02-08T16:14:19.873Z,63.78
2023-02-08T16:16:50.698Z,63.58
2023-02-08T16:19:21.441Z,62.57
2023-02-08T16:21:51.979Z,61.73
2023-02-08T16:24:22.409Z,62.09
2023-02-08T16:26:53.241Z,61.19
2023-02-08T16:29:23.775Z,61.51
2023-02-08T16:31:54.771Z,61.55
2023-02-08T16:34:25.447Z,62.47
2023-02-08T16:36:56.267Z,63.10
2023-02-08T16:39:26.787Z,63.30
2023-02-08T16:42:09.578Z,61.97
2023-02-08T16:44:27.343Z,62.63
2023-02-08T16:46:58.269Z,62.51
2023-02-08T16:49:29.083Z,63.34
2023-02-08T16:51:59.181Z,64.05
2023-02-08T16:54:29.683Z,64.64
2023-02-08T16:56:59.778Z,64.18
2023-02-08T16:59:30.671Z,64.67
2023-02-08T17:02:01.418Z,65.19
2023-02-08T17:04:32.405Z,65.21
2023-02-08T17:07:03.170Z,64.56
2023-02-08T17:09:34.069Z,65.14
2023-02-08T17:12:20.414Z,65.41
2023-02-08T17:14:35.822Z,65.36
2023-02-08T17:17:06.310Z,66.10
2023-02-08T17:19:36.355Z,66.00
2023-02-08T17:22:06.966Z,65.62
2023-02-08T17:24:39.315Z,65.80
2023-02-08T17:27:08.777Z,65.94
2023-02-08T17:29:39.666Z,65.63
2023-02-08T17:32:09.944Z,66.42
2023-02-08T17:34:39.990Z,66.89
2023-02-08T17:37:10.913Z,66.73
2023-02-08T17:39:41.463Z,66.31
2023-02-08T17:42:11.572Z,67.09
2023-02-08T17:44:42.186Z,66.87
2023-02-08T17:47:12.322Z,66.87
2023-02-08T17:49:42.864Z,66.72
2023-02-08T17:52:13.503Z,67.42
2023-02-08T17:54:43.608Z,67.11
2023-02-08T17:57:14.238Z,67.34
2023-02-08T17:59:44.281Z,67.36
2023-02-08T18:02:14.245Z,67.37
2023-02-08T18:04:44.892Z,67.29
2023-02-08T18:07:14.985Z,68.09
2023-02-08T18:09:44.996Z,68.14
2023-02-08T18:12:15.124Z,68.44
2023-02-08T18:14:45.761Z,68.77
2023-02-08T18:17:15.812Z,69.22
2023-02-08T18:19:46.193Z,69.78
2023-02-08T18:22:16.223Z,69.48
2023-02-08T18:24:46.954Z,69.57
2023-02-08T18:27:17.029Z,69.82
2023-02-08T18:29:47.590Z,69.64
2023-02-08T18:32:18.228Z,69.79
2023-02-08T18:34:48.835Z,69.97
2023-02-08T18:37:19.504Z,70.25
2023-02-08T18:39:49.890Z,70.41
2023-02-08T18:42:20.524Z,70.86
2023-02-08T18:44:50.827Z,71.87
2023-02-08T18:47:21.675Z,72.14
2023-02-08T18:49:52.408Z,72.35
2023-02-08T18:52:23.103Z,72.14
2023-02-08T18:54:53.707Z,72.16
2023-02-08T18:57:24.150Z,72.30
2023-02-08T18:59:54.224Z,72.40
2023-02-08T19:02:24.890Z,72.42
2023-02-08T19:04:55.421Z,72.70
2023-02-08T19:07:26.091Z,72.76
2023-02-08T19:09:56.400Z,72.96
2023-02-08T19:12:27.055Z,73.00
2023-02-08T19:14:57.668Z,73.22
2023-02-08T19:17:28.187Z,73.40
2023-02-08T19:19:58.160Z,73.54
2023-02-08T19:22:28.234Z,73.33
2023-02-08T19:24:58.559Z,73.41
2023-02-08T19:27:28.762Z,73.50
2023-02-08T19:29:59.235Z,73.49
2023-02-08T19:32:29.956Z,73.52
2023-02-08T19:35:00.309Z,73.42
2023-02-08T19:37:31.212Z,73.65
2023-02-08T19:40:01.501Z,73.36
2023-02-08T19:42:31.644Z,73.36
2023-02-08T19:45:01.830Z,73.44
2023-02-08T19:47:49.916Z,73.58
2023-02-08T19:50:02.878Z,73.93
2023-02-08T19:52:33.052Z,74.15
2023-02-08T19:55:03.819Z,74.56
2023-02-08T19:57:34.413Z,74.52
2023-02-08T20:00:11.223Z,74.54
2023-02-08T20:02:35.308Z,74.61
2023-02-08T20:05:05.872Z,75.32
2023-02-08T20:07:36.605Z,75.31
2023-02-08T20:10:06.675Z,75.11
2023-02-08T20:12:36.796Z,75.13
2023-02-08T20:15:07.529Z,75.47
2023-02-08T20:17:38.336Z,75.22
2023-02-08T20:20:08.575Z,75.33
2023-02-08T20:22:39.268Z,75.40
2023-02-08T20:25:10.039Z,75.65
2023-02-08T20:27:40.480Z,75.75
2023-02-08T20:30:11.092Z,76.22
2023-02-08T20:32:41.407Z,75.92
2023-02-08T20:35:12.059Z,76.02
2023-02-08T20:37:42.241Z,76.42
2023-02-08T20:40:12.908Z,76.77
2023-02-08T20:42:43.707Z,76.61
2023-02-08T20:45:15.343Z,76.84
2023-02-08T20:47:46.566Z,76.96
2023-02-08T20:50:19.149Z,76.95
2023-02-08T20:52:45.011Z,77.34
2023-02-08T20:55:15.745Z,77.80
2023-02-08T20:57:46.030Z,77.66
2023-02-08T21:00:15.959Z,77.98
2023-02-08T21:02:46.454Z,78.18
2023-02-08T21:05:16.768Z,78.08
2023-02-08T21:07:46.869Z,78.28
2023-02-08T21:10:17.469Z,78.17
2023-02-08T21:12:47.952Z,78.02
2023-02-08T21:15:18.550Z,78.00
2023-02-08T21:17:48.600Z,78.09
2023-02-08T21:20:19.275Z,78.16
2023-02-08T21:22:50.028Z,78.56
2023-02-08T21:25:20.585Z,79.26
2023-02-08T21:27:50.976Z,79.34
2023-02-08T21:30:21.345Z,79.20
2023-02-08T21:32:52.038Z,79.04
2023-02-08T21:35:22.486Z,78.56
2023-02-08T21:37:53.018Z,78.38
2023-02-08T21:40:23.031Z,78.73
2023-02-08T21:42:53.799Z,78.76
2023-02-08T21:45:23.854Z,79.61
2023-02-08T21:47:54.675Z,79.66
2023-02-08T21:50:24.807Z,79.94
2023-02-08T21:52:55.375Z,80.20
2023-02-08T21:55:25.913Z,79.99
2023-02-08T21:57:56.829Z,80.29
2023-02-08T22:00:27.254Z,80.79
2023-02-08T22:02:57.825Z,80.93
2023-02-08T22:05:28.663Z,80.93
2023-02-08T22:07:58.728Z,80.55
2023-02-08T22:10:29.267Z,80.69
2023-02-08T22:13:00.146Z,80.42
2023-02-08T22:15:30.701Z,80.02
2023-02-08T22:18:01.034Z,80.04
2023-02-08T22:20:31.756Z,80.87
2023-02-08T22:23:02.511Z,78.49
2023-02-08T22:25:32.919Z,77.74
2023-02-08T22:28:03.525Z,78.42
2023-02-08T22:30:33.684Z,78.20
2023-02-08T22:33:04.131Z,79.32
2023-02-08T22:35:34.266Z,79.87
2023-02-08T22:38:05.118Z,80.51
2023-02-08T22:40:35.970Z,79.61
2023-02-08T22:43:06.614Z,80.00
2023-02-08T22:45:37.063Z,80.19
2023-02-08T22:48:07.498Z,80.55
2023-02-08T22:50:38.374Z,80.28
2023-02-08T22:53:08.623Z,79.99
2023-02-08T22:55:39.432Z,79.75
2023-02-08T22:58:09.532Z,79.49
2023-02-08T23:00:39.909Z,79.30
2023-02-08T23:03:10.194Z,78.87
2023-02-08T23:05:40.883Z,79.21
2023-02-08T23:08:11.130Z,79.20
2023-02-08T23:10:41.934Z,79.43
2023-02-08T23:13:12.700Z,79.65
2023-02-08T23:15:43.170Z,79.95
2023-02-08T23:18:13.846Z,79.90
2023-02-08T23:20:45.033Z,80.03
2023-02-08T23:23:14.888Z,80.04
2023-02-08T23:25:45.053Z,80.40
2023-02-08T23:28:15.406Z,80.86
2023-02-08T23:30:46.396Z,80.82
2023-02-08T23:33:16.164Z,80.54
2023-02-08T23:35:46.190Z,80.55
2023-02-08T23:38:16.674Z,80.65
2023-02-08T23:40:47.164Z,80.98
2023-02-08T23:43:17.724Z,80.79
2023-02-08T23:45:47.996Z,81.21
2023-02-08T23:48:18.831Z,81.41
2023-02-08T23:50:49.542Z,81.95
2023-02-08T23:53:20.161Z,81.82
2023-02-08T23:55:50.900Z,81.78
2023-02-08T23:58:21.422Z,81.66
